createdAt,value
2022-10-09T00:01:50.393Z,99169.09
2022-10-09T00:04:20.109Z,99161.50
2022-10-09T00:06:52.524Z,99163.38
2022-10-09T00:09:22.363Z,99162.69
2022-10-09T00:11:52.033Z,99164.31
2022-10-09T00:14:21.758Z,99162.22
2022-10-09T00:16:51.520Z,99155.66
2022-10-09T00:19:21.342Z,99158.84
2022-10-09T00:21:53.652Z,99158.50
2022-10-09T00:24:23.440Z,99152.06
2022-10-09T00:26:53.156Z,99151.91
2022-10-09T00:29:22.857Z,99162.81
2022-10-09T00:31:52.662Z,99159.31
2022-10-09T00:34:22.391Z,99153.66
2022-10-09T00:36:54.692Z,99153.41
2022-10-09T00:39:24.350Z,99158.22
2022-10-09T00:41:54.114Z,99151.78
2022-10-09T00:44:50.406Z,99145.91
2022-10-09T00:47:23.750Z,99142.03
2022-10-09T00:49:56.816Z,99144.66
2022-10-09T00:52:29.922Z,99142.59
2022-10-09T00:55:01.005Z,99144.03
2022-10-09T00:57:31.028Z,99142.38
2022-10-09T01:00:01.943Z,99134.78
2022-10-09T01:02:31.696Z,99138.56
2022-10-09T01:05:02.117Z,99137.00
2022-10-09T01:07:41.462Z,99136.91
2022-10-09T01:10:22.380Z,99133.41
2022-10-09T01:13:04.708Z,99126.41
2022-10-09T01:15:38.906Z,99130.16
2022-10-09T01:18:13.936Z,99118.19
2022-10-09T01:20:49.692Z,99127.66
2022-10-09T01:23:50.571Z,99122.59
2022-10-09T01:26:59.040Z,99121.16
2022-10-09T01:29:33.544Z,99118.53
2022-10-09T01:32:04.628Z,99110.16
2022-10-09T01:34:36.048Z,99111.19
2022-10-09T01:37:06.564Z,99116.97
2022-10-09T01:39:38.501Z,99106.97
2022-10-09T01:42:12.458Z,99105.66
2022-10-09T01:44:42.225Z,99106.28
2022-10-09T01:47:17.660Z,99094.81
2022-10-09T01:49:56.046Z,99097.06
2022-10-09T01:52:41.329Z,99099.28
2022-10-09T01:55:34.440Z,99098.16
2022-10-09T01:58:13.366Z,99084.44
2022-10-09T02:00:54.574Z,99091.44
2022-10-09T02:03:26.552Z,99082.91
2022-10-09T02:05:58.907Z,99079.47
2022-10-09T02:08:29.099Z,99079.84
2022-10-09T02:11:01.278Z,99075.31
2022-10-09T02:13:35.128Z,99079.53
2022-10-09T02:16:12.386Z,99070.09
2022-10-09T02:18:46.094Z,99071.69
2022-10-09T02:21:19.601Z,99062.69
2022-10-09T02:23:51.925Z,99069.56
2022-10-09T02:26:22.498Z,99064.16
2022-10-09T02:28:55.121Z,99061.44
2022-10-09T02:31:29.149Z,99059.00
2022-10-09T02:34:00.176Z,99047.13
2022-10-09T02:36:31.232Z,99052.69
2022-10-09T02:39:01.366Z,99054.53
2022-10-09T02:41:31.632Z,99057.16
2022-10-09T02:44:04.694Z,99047.22
2022-10-09T02:46:34.665Z,99044.38
2022-10-09T02:49:04.571Z,99054.22
2022-10-09T02:51:34.357Z,99054.53
2022-10-09T02:54:04.071Z,99052.75
2022-10-09T02:56:38.541Z,99047.91
2022-10-09T02:59:11.826Z,99048.53
2022-10-09T03:01:41.722Z,99055.38
2022-10-09T03:04:11.492Z,99052.66
2022-10-09T03:06:41.171Z,99050.16
2022-10-09T03:09:10.893Z,99054.84
2022-10-09T03:11:40.606Z,99058.63
2022-10-09T03:14:13.059Z,99056.53
2022-10-09T03:16:42.745Z,99047.91
2022-10-09T03:19:12.542Z,99046.53
2022-10-09T03:21:42.206Z,99045.41
2022-10-09T03:24:12.966Z,99046.50
2022-10-09T03:26:42.665Z,99048.06
2022-10-09T03:29:14.968Z,99048.06
2022-10-09T03:31:52.572Z,99044.28
2022-10-09T03:34:22.965Z,99054.66
2022-10-09T03:36:53.108Z,99051.63
2022-10-09T03:39:22.826Z,99053.66
2022-10-09T03:41:52.556Z,99044.69
2022-10-09T03:44:24.898Z,99048.66
2022-10-09T03:46:55.423Z,99045.50
2022-10-09T03:49:25.229Z,99043.91
2022-10-09T03:51:54.910Z,99053.69
2022-10-09T03:54:24.673Z,99038.00
2022-10-09T03:56:57.508Z,99041.97
2022-10-09T03:59:29.856Z,99043.13
2022-10-09T04:01:59.551Z,99048.59
2022-10-09T04:04:29.773Z,99047.44
2022-10-09T04:06:59.440Z,99041.19
2022-10-09T04:09:29.097Z,99051.06
2022-10-09T04:11:58.865Z,99049.81
2022-10-09T04:14:31.114Z,99052.66
2022-10-09T04:17:00.801Z,99050.97
2022-10-09T04:19:30.472Z,99051.28
2022-10-09T04:22:00.212Z,99051.66
2022-10-09T04:24:29.859Z,99042.53
2022-10-09T04:26:59.766Z,99053.31
2022-10-09T04:29:31.994Z,99050.47
2022-10-09T04:32:01.739Z,99043.44
2022-10-09T04:34:31.377Z,99040.25
2022-10-09T04:37:01.106Z,99045.50
2022-10-09T04:39:30.761Z,99047.66
2022-10-09T04:42:00.455Z,99050.06
2022-10-09T04:44:32.753Z,99048.00
2022-10-09T04:47:02.433Z,99046.06
2022-10-09T04:49:32.176Z,99043.25
2022-10-09T04:52:02.234Z,99038.03
2022-10-09T04:54:31.909Z,99038.13
2022-10-09T04:57:01.597Z,99031.44
2022-10-09T04:59:34.085Z,99036.66
2022-10-09T05:02:03.881Z,99037.56
2022-10-09T05:04:33.709Z,99037.78
2022-10-09T05:07:03.436Z,99028.94
2022-10-09T05:09:33.205Z,99033.31
2022-10-09T05:12:02.901Z,99031.84
2022-10-09T05:14:35.258Z,99033.88
2022-10-09T05:17:14.488Z,99038.97
2022-10-09T05:19:44.612Z,99047.91
2022-10-09T05:22:14.514Z,99040.78
2022-10-09T05:24:44.150Z,99039.06
2022-10-09T05:27:13.833Z,99042.25
2022-10-09T05:29:46.275Z,99033.97
2022-10-09T05:32:15.961Z,99035.44
2022-10-09T05:34:45.626Z,99037.97
2022-10-09T05:37:15.301Z,99034.09
2022-10-09T05:39:45.209Z,99037.50
2022-10-09T05:42:14.890Z,99031.31
2022-10-09T05:44:47.162Z,99034.72
2022-10-09T05:47:18.128Z,99039.00
2022-10-09T05:49:48.103Z,99038.16
2022-10-09T05:52:17.778Z,99038.75
2022-10-09T05:54:47.456Z,99036.34
2022-10-09T05:57:17.176Z,99039.94
2022-10-09T05:59:49.429Z,99036.44
2022-10-09T06:02:19.121Z,99031.94
2022-10-09T06:04:48.771Z,99034.88
2022-10-09T06:07:18.659Z,99036.81
2022-10-09T06:09:48.331Z,99029.50
2022-10-09T06:12:18.020Z,99032.88
2022-10-09T06:14:50.314Z,99034.69
2022-10-09T06:17:20.064Z,99035.06
2022-10-09T06:19:49.894Z,99037.13
2022-10-09T06:22:19.624Z,99032.88
2022-10-09T06:24:49.340Z,99038.78
2022-10-09T06:27:19.170Z,99038.81
2022-10-09T06:29:53.512Z,99038.84
2022-10-09T06:32:23.192Z,99038.97
2022-10-09T06:34:53.702Z,99042.31
2022-10-09T06:37:23.453Z,99038.16
2022-10-09T06:39:53.168Z,99045.75
2022-10-09T06:42:22.851Z,99044.16
2022-10-09T06:44:55.185Z,99046.59
2022-10-09T06:47:24.882Z,99049.00
2022-10-09T06:49:54.573Z,99041.44
2022-10-09T06:52:24.261Z,99046.56
2022-10-09T06:54:54.067Z,99046.94
2022-10-09T06:57:23.777Z,99046.38
2022-10-09T06:59:56.065Z,99053.41
2022-10-09T07:02:25.752Z,99044.94
2022-10-09T07:04:55.510Z,99043.94
2022-10-09T07:07:25.287Z,99050.03
2022-10-09T07:09:55.199Z,99051.28
2022-10-09T07:12:24.863Z,99045.31
2022-10-09T07:14:57.310Z,99053.22
2022-10-09T07:17:27.041Z,99054.59
2022-10-09T07:19:56.741Z,99066.91
2022-10-09T07:22:27.223Z,99051.47
2022-10-09T07:24:57.069Z,99050.09
2022-10-09T07:27:26.817Z,99052.91
2022-10-09T07:30:00.450Z,99052.13
2022-10-09T07:32:30.240Z,99048.56
2022-10-09T07:34:59.929Z,99052.41
2022-10-09T07:37:29.607Z,99050.94
2022-10-09T07:39:59.294Z,99050.81
2022-10-09T07:42:29.026Z,99046.19
2022-10-09T07:45:01.373Z,99046.91
2022-10-09T07:47:31.072Z,99050.72
2022-10-09T07:50:00.845Z,99052.75
2022-10-09T07:52:30.610Z,99043.63
2022-10-09T07:55:00.414Z,99051.69
2022-10-09T07:57:30.212Z,99050.91
2022-10-09T08:00:02.565Z,99047.31
2022-10-09T08:02:33.567Z,99048.91
2022-10-09T08:05:03.349Z,99045.88
2022-10-09T08:07:35.018Z,99039.91
2022-10-09T08:10:04.866Z,99037.16
2022-10-09T08:12:34.681Z,99037.66
2022-10-09T08:15:07.719Z,99035.25
2022-10-09T08:17:37.400Z,99042.91
2022-10-09T08:20:08.244Z,99047.47
2022-10-09T08:22:37.969Z,99038.47
2022-10-09T08:25:09.007Z,99041.00
2022-10-09T08:27:38.699Z,99032.78
2022-10-09T08:30:12.124Z,99029.88
2022-10-09T08:32:42.548Z,99024.41
2022-10-09T08:35:12.516Z,99021.81
2022-10-09T08:37:42.793Z,99020.53
2022-10-09T08:40:19.059Z,99019.31
2022-10-09T08:42:56.219Z,99013.09
2022-10-09T08:45:28.673Z,99017.97
2022-10-09T08:48:02.401Z,99016.91
2022-10-09T08:50:36.097Z,99021.72
2022-10-09T08:53:13.685Z,99022.44
2022-10-09T08:55:48.474Z,99010.69
2022-10-09T08:58:19.970Z,99011.47
2022-10-09T09:00:56.259Z,99009.50
2022-10-09T09:03:56.062Z,99005.56
2022-10-09T09:06:34.660Z,99005.88
2022-10-09T09:09:14.909Z,99004.38
2022-10-09T09:11:52.690Z,99000.44
2022-10-09T09:14:40.312Z,98996.88
2022-10-09T09:17:22.132Z,98997.69
2022-10-09T09:20:06.880Z,98992.56
2022-10-09T09:22:37.318Z,98981.94
2022-10-09T09:25:20.318Z,98978.34
2022-10-09T09:27:50.652Z,98983.88
2022-10-09T09:30:26.046Z,98979.84
2022-10-09T09:33:04.861Z,98982.63
2022-10-09T09:35:46.967Z,98978.31
2022-10-09T09:38:17.262Z,98975.56
2022-10-09T09:40:47.783Z,98972.03
2022-10-09T09:43:22.554Z,98971.22
2022-10-09T09:45:56.058Z,98964.13
2022-10-09T09:48:35.054Z,98957.75
2022-10-09T09:51:27.449Z,98963.25
2022-10-09T09:53:59.722Z,98953.41
2022-10-09T09:57:07.086Z,98951.34
2022-10-09T09:59:35.767Z,98942.75
2022-10-09T10:02:14.364Z,98946.16
2022-10-09T10:04:56.729Z,98940.13
2022-10-09T10:07:34.142Z,98931.78
2022-10-09T10:10:21.027Z,98945.00
2022-10-09T10:12:57.959Z,98938.41
2022-10-09T10:15:29.557Z,98924.97
2022-10-09T10:18:04.587Z,98924.75
2022-10-09T10:20:46.481Z,98913.78
2022-10-09T10:23:26.437Z,98914.53
2022-10-09T10:25:59.889Z,98905.94
2022-10-09T10:28:35.028Z,98907.72
2022-10-09T10:31:08.723Z,98905.88
2022-10-09T10:33:40.823Z,98902.03
2022-10-09T10:36:14.693Z,98901.69
2022-10-09T10:38:52.731Z,98896.38
2022-10-09T10:41:26.996Z,98887.16
2022-10-09T10:44:01.508Z,98883.03
2022-10-09T10:46:34.814Z,98886.91
2022-10-09T10:49:04.833Z,98888.56
2022-10-09T10:51:53.920Z,98882.91
2022-10-09T10:54:38.186Z,98885.91
2022-10-09T10:57:17.596Z,98875.28
2022-10-09T11:00:00.494Z,98881.31
2022-10-09T11:02:55.997Z,98876.91
2022-10-09T11:05:37.241Z,98866.66
2022-10-09T11:08:34.211Z,98861.19
2022-10-09T11:11:11.543Z,98866.31
2022-10-09T11:13:50.199Z,98862.75
2022-10-09T11:16:33.010Z,98858.63
2022-10-09T11:19:22.909Z,98852.59
2022-10-09T11:22:01.647Z,98853.44
2022-10-09T11:25:01.411Z,98848.38
2022-10-09T11:27:47.179Z,98846.28
2022-10-09T11:30:19.460Z,98833.44
2022-10-09T11:32:58.669Z,98836.09
2022-10-09T11:35:32.403Z,98830.47
2022-10-09T11:38:07.923Z,98823.94
2022-10-09T11:40:45.315Z,98818.84
2022-10-09T11:43:36.428Z,98820.50
2022-10-09T11:46:11.439Z,98810.69
2022-10-09T11:48:50.177Z,98817.97
2022-10-09T11:51:26.188Z,98808.81
2022-10-09T11:53:57.166Z,98808.31
2022-10-09T11:56:32.229Z,98808.88
2022-10-09T11:59:04.025Z,98791.47
2022-10-09T12:01:37.218Z,98788.84
2022-10-09T12:04:11.724Z,98780.53
2022-10-09T12:06:49.811Z,98774.69
2022-10-09T12:09:25.648Z,98777.41
2022-10-09T12:12:07.312Z,98771.69
2022-10-09T12:14:38.977Z,98768.22
2022-10-09T12:17:19.412Z,98758.91
2022-10-09T12:19:49.322Z,98757.91
2022-10-09T12:22:23.691Z,98752.22
2022-10-09T12:24:54.820Z,98751.16
2022-10-09T12:27:29.900Z,98740.63
2022-10-09T12:30:03.008Z,98741.97
2022-10-09T12:32:36.335Z,98736.63
2022-10-09T12:35:17.590Z,98740.91
2022-10-09T12:37:47.327Z,98734.63
2022-10-09T12:40:19.765Z,98732.03
2022-10-09T12:42:54.114Z,98733.25
2022-10-09T12:45:27.014Z,98724.19
2022-10-09T12:47:57.516Z,98735.38
2022-10-09T12:50:30.490Z,98731.53
2022-10-09T12:53:02.197Z,98719.34
2022-10-09T12:55:34.672Z,98716.78
2022-10-09T12:58:10.725Z,98714.47
2022-10-09T13:00:40.684Z,98703.88
2022-10-09T13:03:25.496Z,98697.22
2022-10-09T13:05:55.740Z,98703.47
2022-10-09T13:08:28.762Z,98699.59
2022-10-09T13:11:10.489Z,98689.94
2022-10-09T13:13:43.477Z,98685.03
2022-10-09T13:16:13.273Z,98697.59
2022-10-09T13:18:43.044Z,98690.06
2022-10-09T13:21:24.857Z,98687.63
2022-10-09T13:23:54.492Z,98683.63
2022-10-09T13:26:28.501Z,98690.22
2022-10-09T13:29:03.833Z,98685.00
2022-10-09T13:31:33.957Z,98683.00
2022-10-09T13:34:04.297Z,98684.97
2022-10-09T13:36:34.046Z,98672.44
2022-10-09T13:39:03.622Z,98674.84
2022-10-09T13:41:34.256Z,98673.50
2022-10-09T13:44:06.514Z,98665.16
2022-10-09T13:46:36.238Z,98665.94
2022-10-09T13:49:05.891Z,98660.03
2022-10-09T13:51:36.293Z,98659.75
2022-10-09T13:54:06.406Z,98653.31
2022-10-09T13:56:36.159Z,98650.31
2022-10-09T13:59:08.434Z,98653.06
2022-10-09T14:01:38.185Z,98639.34
2022-10-09T14:04:07.914Z,98639.63
2022-10-09T14:06:38.664Z,98634.97
2022-10-09T14:09:09.007Z,98633.59
2022-10-09T14:11:39.019Z,98635.56
2022-10-09T14:14:11.294Z,98626.16
2022-10-09T14:16:40.912Z,98615.16
2022-10-09T14:19:10.524Z,98606.81
2022-10-09T14:21:40.448Z,98615.00
2022-10-09T14:24:10.272Z,98613.81
2022-10-09T14:26:41.419Z,98602.78
2022-10-09T14:29:14.000Z,98607.16
2022-10-09T14:31:43.774Z,98601.16
2022-10-09T14:34:16.040Z,98599.66
2022-10-09T14:36:45.740Z,98592.72
2022-10-09T14:39:15.523Z,98595.09
2022-10-09T14:41:45.988Z,98597.50
2022-10-09T14:44:18.204Z,98599.09
2022-10-09T14:46:47.827Z,98595.81
2022-10-09T14:49:17.596Z,98589.19
2022-10-09T14:51:47.290Z,98584.25
2022-10-09T14:54:16.918Z,98587.34
2022-10-09T14:56:46.480Z,98576.03
2022-10-09T14:59:18.723Z,98579.00
2022-10-09T15:01:48.509Z,98570.72
2022-10-09T15:04:18.246Z,98570.28
2022-10-09T15:06:48.024Z,98565.13
2022-10-09T15:09:17.690Z,98566.09
2022-10-09T15:11:47.419Z,98568.38
2022-10-09T15:14:19.704Z,98561.66
2022-10-09T15:16:49.835Z,98570.75
2022-10-09T15:19:19.495Z,98563.50
2022-10-09T15:21:49.215Z,98559.41
2022-10-09T15:24:18.934Z,98559.03
2022-10-09T15:26:48.661Z,98557.53
2022-10-09T15:29:20.899Z,98554.72
2022-10-09T15:31:53.687Z,98554.81
2022-10-09T15:34:23.601Z,98552.56
2022-10-09T15:36:53.195Z,98542.31
2022-10-09T15:39:23.754Z,98543.56
2022-10-09T15:41:53.391Z,98540.03
2022-10-09T15:44:25.591Z,98541.63
2022-10-09T15:46:55.216Z,98540.81
2022-10-09T15:49:24.885Z,98540.06
2022-10-09T15:51:54.466Z,98541.66
2022-10-09T15:54:24.228Z,98535.41
2022-10-09T15:56:54.665Z,98536.97
2022-10-09T15:59:30.100Z,98538.28
2022-10-09T16:01:59.809Z,98537.22
2022-10-09T16:04:31.205Z,98524.22
2022-10-09T16:07:00.925Z,98530.56
2022-10-09T16:09:35.008Z,98529.41
2022-10-09T16:12:05.379Z,98535.41
2022-10-09T16:14:38.466Z,98528.34
2022-10-09T16:17:11.231Z,98535.78
2022-10-09T16:19:41.455Z,98536.53
2022-10-09T16:22:11.127Z,98522.41
2022-10-09T16:24:40.806Z,98521.66
2022-10-09T16:27:10.443Z,98521.28
2022-10-09T16:29:45.848Z,98515.84
2022-10-09T16:32:16.832Z,98516.22
2022-10-09T16:34:46.482Z,98516.97
2022-10-09T16:37:16.108Z,98519.41
2022-10-09T16:39:45.762Z,98523.31
2022-10-09T16:42:15.377Z,98515.91
2022-10-09T16:44:48.209Z,98522.97
2022-10-09T16:47:17.884Z,98516.25
2022-10-09T16:49:47.597Z,98526.53
2022-10-09T16:52:17.283Z,98519.06
2022-10-09T16:54:47.576Z,98527.31
2022-10-09T16:57:20.169Z,98524.97
2022-10-09T16:59:52.455Z,98527.72
2022-10-09T17:02:22.152Z,98526.53
2022-10-09T17:04:51.788Z,98525.75
2022-10-09T17:07:23.244Z,98531.28
2022-10-09T17:09:54.245Z,98530.50
2022-10-09T17:12:23.961Z,98534.44
2022-10-09T17:14:57.819Z,98533.25
2022-10-09T17:17:27.554Z,98529.31
2022-10-09T17:19:57.248Z,98532.88
2022-10-09T17:22:26.952Z,98534.81
2022-10-09T17:24:57.669Z,98538.38
2022-10-09T17:27:27.317Z,98533.63
2022-10-09T17:29:59.598Z,98529.72
2022-10-09T17:32:29.321Z,98529.72
2022-10-09T17:34:59.089Z,98526.56
2022-10-09T17:37:28.920Z,98527.75
2022-10-09T17:39:58.637Z,98530.09
2022-10-09T17:42:28.345Z,98527.38
2022-10-09T17:45:00.703Z,98528.94
2022-10-09T17:47:30.695Z,98529.72
2022-10-09T17:50:00.418Z,98531.28
2022-10-09T17:52:30.071Z,98534.06
2022-10-09T17:54:59.720Z,98534.81
2022-10-09T17:57:32.258Z,98531.66
2022-10-09T18:00:04.531Z,98523.44
2022-10-09T18:02:34.228Z,98528.13
2022-10-09T18:05:07.059Z,98535.22
2022-10-09T18:07:36.768Z,98530.47
2022-10-09T18:10:07.370Z,98520.28
2022-10-09T18:12:37.396Z,98527.28
2022-10-09T18:15:12.119Z,98519.81
2022-10-09T18:17:42.618Z,98510.75
2022-10-09T18:20:12.697Z,98521.72
2022-10-09T18:22:43.460Z,98517.75
2022-10-09T18:25:13.184Z,98521.28
2022-10-09T18:27:48.895Z,98515.81
2022-10-09T18:30:21.514Z,98519.34
2022-10-09T18:32:51.976Z,98505.97
2022-10-09T18:35:22.015Z,98504.34
2022-10-09T18:37:56.529Z,98522.81
2022-10-09T18:40:26.293Z,98505.19
2022-10-09T18:42:56.152Z,98512.28
2022-10-09T18:45:28.692Z,98507.53
2022-10-09T18:47:58.594Z,98503.63
2022-10-09T18:50:28.417Z,98504.38
2022-10-09T18:52:58.349Z,98507.09
2022-10-09T18:55:28.145Z,98507.50
2022-10-09T18:58:00.973Z,98503.56
2022-10-09T19:00:37.221Z,98492.53
2022-10-09T19:03:07.460Z,98492.19
2022-10-09T19:05:37.222Z,98490.97
2022-10-09T19:08:06.952Z,98499.53
2022-10-09T19:10:36.670Z,98495.97
2022-10-09T19:13:06.576Z,98492.75
2022-10-09T19:15:42.935Z,98492.78
2022-10-09T19:18:12.609Z,98492.41
2022-10-09T19:20:42.399Z,98505.38
2022-10-09T19:23:14.700Z,98489.13
2022-10-09T19:25:51.217Z,98505.59
2022-10-09T19:28:22.000Z,98493.09
2022-10-09T19:30:54.929Z,98494.56
2022-10-09T19:33:24.667Z,98490.69
2022-10-09T19:35:56.372Z,98493.03
2022-10-09T19:38:27.519Z,98493.72
2022-10-09T19:40:57.605Z,98490.16
2022-10-09T19:43:28.095Z,98490.34
2022-10-09T19:46:07.781Z,98481.34
2022-10-09T19:48:38.268Z,98485.47
2022-10-09T19:51:10.032Z,98489.34
2022-10-09T19:53:40.446Z,98494.13
2022-10-09T19:56:13.507Z,98486.00
2022-10-09T19:58:43.758Z,98488.72
2022-10-09T20:01:17.446Z,98488.41
2022-10-09T20:03:47.605Z,98488.25
2022-10-09T20:06:18.179Z,98487.78
2022-10-09T20:08:47.978Z,98483.47
2022-10-09T20:11:20.354Z,98491.69
2022-10-09T20:13:56.017Z,98488.59
2022-10-09T20:16:32.187Z,98487.84
2022-10-09T20:19:02.798Z,98488.63
2022-10-09T20:21:33.390Z,98490.09
2022-10-09T20:24:03.454Z,98491.59
2022-10-09T20:26:40.926Z,98475.16
2022-10-09T20:29:12.592Z,98485.69
2022-10-09T20:31:44.876Z,98482.53
2022-10-09T20:34:14.539Z,98483.59
2022-10-09T20:36:44.710Z,98485.16
2022-10-09T20:39:16.883Z,98477.97
2022-10-09T20:41:46.568Z,98487.50
2022-10-09T20:44:16.622Z,98477.19
2022-10-09T20:46:48.951Z,98483.66
2022-10-09T20:49:18.831Z,98490.81
2022-10-09T20:51:48.461Z,98475.72
2022-10-09T20:54:21.343Z,98483.44
2022-10-09T20:56:52.203Z,98480.13
2022-10-09T20:59:21.971Z,98482.88
2022-10-09T21:01:54.224Z,98479.88
2022-10-09T21:04:23.900Z,98475.63
2022-10-09T21:06:53.519Z,98490.00
2022-10-09T21:09:23.177Z,98474.88
2022-10-09T21:11:52.902Z,98480.44
2022-10-09T21:14:22.672Z,98480.88
2022-10-09T21:16:55.009Z,98471.44
2022-10-09T21:19:24.618Z,98480.31
2022-10-09T21:21:54.322Z,98478.06
2022-10-09T21:24:25.084Z,98472.75
2022-10-09T21:26:54.760Z,98470.31
2022-10-09T21:29:24.483Z,98480.09
2022-10-09T21:31:56.903Z,98486.81
2022-10-09T21:34:26.577Z,98479.72
2022-10-09T21:39:47.802Z,98476.66
2022-10-09T21:42:17.515Z,98476.16
2022-10-09T21:44:47.256Z,98467.25
2022-10-09T21:47:24.810Z,98470.91
2022-10-09T21:49:54.551Z,98465.69
2022-10-09T21:52:24.242Z,98466.47
2022-10-09T21:54:53.900Z,98468.84
2022-10-09T21:57:23.595Z,98464.56
2022-10-09T21:59:53.327Z,98467.75
2022-10-09T22:02:25.617Z,98459.63
2022-10-09T22:04:57.361Z,98469.09
2022-10-09T22:07:30.361Z,98459.25
2022-10-09T22:10:00.087Z,98468.28
2022-10-09T22:12:29.903Z,98459.63
2022-10-09T22:14:59.612Z,98462.31
2022-10-09T22:17:31.882Z,98463.56
2022-10-09T22:20:01.565Z,98454.56
2022-10-09T22:22:31.198Z,98462.78
2022-10-09T22:25:00.974Z,98446.72
2022-10-09T22:27:30.653Z,98457.47
2022-10-09T22:30:00.311Z,98453.25
2022-10-09T22:32:32.601Z,98448.53
2022-10-09T22:35:02.256Z,98456.06
2022-10-09T22:37:31.932Z,98452.91
2022-10-09T22:40:01.610Z,98448.13
2022-10-09T22:42:31.283Z,98456.41
2022-10-09T22:45:00.912Z,98441.88
2022-10-09T22:47:33.191Z,98445.09
2022-10-09T22:50:02.896Z,98445.44
2022-10-09T22:52:32.560Z,98439.53
2022-10-09T22:55:03.623Z,98433.28
2022-10-09T22:57:33.299Z,98432.03
2022-10-09T23:00:02.975Z,98430.84
2022-10-09T23:02:35.232Z,98430.06
2022-10-09T23:05:05.100Z,98429.28
2022-10-09T23:07:34.723Z,98429.03
2022-10-09T23:10:04.519Z,98423.78
2022-10-09T23:12:34.196Z,98422.19
2022-10-09T23:15:03.815Z,98419.09
2022-10-09T23:17:36.126Z,98421.72
2022-10-09T23:20:06.046Z,98422.47
2022-10-09T23:22:35.768Z,98419.41
2022-10-09T23:25:05.636Z,98422.59
2022-10-09T23:27:35.276Z,98423.34
2022-10-09T23:30:04.907Z,98427.69
2022-10-09T23:32:37.191Z,98424.59
2022-10-09T23:35:07.611Z,98424.56
2022-10-09T23:37:37.398Z,98423.72
2022-10-09T23:40:07.776Z,98423.75
2022-10-09T23:42:37.828Z,98422.88
2022-10-09T23:45:08.644Z,98418.94
2022-10-09T23:47:40.993Z,98423.28
2022-10-09T23:50:11.004Z,98422.84
2022-10-09T23:52:40.694Z,98416.59
2022-10-09T23:55:11.216Z,98422.34
2022-10-09T23:57:40.860Z,98418.94
